Main page
METAR-TAF:

METAR-TAF

Airports :

Groningen Airport Eelde

Groningen, Netherlands

latitude: 53-08N, longitude: 006-35E, elevation: 4 m

Current weather observation

The report was made 19 minutes ago, at 02:55 UTC
Wind 5 kt from the East/Northeast
Temperature 13°C
Humidity 94%
Pressure 1018 hPa
Visibility 10 km or more

METAR: EHGG 250255Z AUTO 06005KT 9999 NCD 13/12 Q1018

Time: 05:14 (03:14 UTC)

Forecast

The report was made 4 hours and 6 minutes ago, at 23:08 UTC
Forecast valid from 25 at 00 UTC to 26 at 06 UTC
Wind 7 kt from the East/Northeast
Visibility 10 km or more
no clouds below 1500 m and no cumulonimbus
Probability 40% :
Temporary
from 25 at 00 UTC to 25 at 04 UTC
Visibility: 6000 m
Shallow fog,

TAF: EHGG 242308Z 2500/2606 06007KT CAVOK PROB40 TEMPO 2500/2504 6000 MIFG

Weather observations and forecasts of more than 4000 airports (METAR and TAF reports).

The available stations are represented by yellow and red dots on the map.

Hover mouse over dot to see the name of the station.

Then click to see weather observations and forecasts.

To change the map : click on the green buttons with a black cross to zoom in, on the green button with a dash to zoom out, or on the green arrows for adjacent maps.


METAR-TAF: